createdAt,value
2018-08-19T00:01:18.313Z,20.93
2018-08-19T00:03:49.017Z,20.97
2018-08-19T00:06:20.050Z,21.02
2018-08-19T00:08:51.158Z,20.93
2018-08-19T00:11:22.183Z,21.03
2018-08-19T00:13:53.428Z,21.10
2018-08-19T00:16:24.188Z,20.84
2018-08-19T00:18:55.008Z,20.66
2018-08-19T00:21:25.903Z,20.68
2018-08-19T00:23:57.055Z,20.68
2018-08-19T00:26:27.846Z,20.63
2018-08-19T00:28:58.535Z,20.24
2018-08-19T00:31:29.940Z,20.33
2018-08-19T00:34:00.064Z,20.38
2018-08-19T00:36:35.968Z,20.42
2018-08-19T00:39:09.097Z,20.40
2018-08-19T00:41:40.117Z,20.57
2018-08-19T00:44:11.198Z,20.59
2018-08-19T00:46:42.753Z,20.50
2018-08-19T00:49:13.773Z,20.45
2018-08-19T00:51:50.151Z,20.23
2018-08-19T00:54:21.601Z,19.96
2018-08-19T00:56:56.426Z,19.74
2018-08-19T00:59:28.968Z,19.80
2018-08-19T01:01:59.829Z,19.82
2018-08-19T01:04:30.944Z,19.84
2018-08-19T01:07:02.911Z,19.67
2018-08-19T01:09:33.965Z,19.63
2018-08-19T01:12:04.653Z,19.59
2018-08-19T01:14:36.268Z,19.67
2018-08-19T01:17:07.385Z,19.95
2018-08-19T01:19:39.003Z,20.09
2018-08-19T01:22:09.721Z,19.99
2018-08-19T01:24:40.514Z,19.78
2018-08-19T01:27:11.517Z,19.71
2018-08-19T01:29:54.077Z,19.55
2018-08-19T01:32:36.458Z,19.65
2018-08-19T01:35:07.506Z,19.60
2018-08-19T01:37:40.388Z,19.38
2018-08-19T01:40:16.284Z,19.55
2018-08-19T01:42:47.325Z,19.71
2018-08-19T01:45:17.689Z,19.85
2018-08-19T01:47:48.337Z,19.89
2018-08-19T01:50:18.953Z,19.82
2018-08-19T01:52:51.018Z,19.92
2018-08-19T01:55:22.581Z,19.89
2018-08-19T01:57:53.550Z,19.84
2018-08-19T02:00:23.504Z,19.77
2018-08-19T02:03:04.728Z,19.85
2018-08-19T02:05:35.681Z,19.92
2018-08-19T02:08:06.393Z,19.83
2018-08-19T02:10:37.379Z,19.82
2018-08-19T02:13:07.481Z,19.59
2018-08-19T02:15:38.129Z,19.49
2018-08-19T02:18:08.963Z,19.48
2018-08-19T02:20:42.020Z,19.53
2018-08-19T02:23:14.034Z,19.54
2018-08-19T02:25:48.190Z,19.53
2018-08-19T02:28:22.128Z,19.56
2018-08-19T02:30:57.468Z,19.59
2018-08-19T02:33:29.833Z,19.67
2018-08-19T02:36:08.860Z,19.50
2018-08-19T02:38:39.740Z,19.61
2018-08-19T02:41:10.644Z,19.52
2018-08-19T02:43:47.148Z,19.39
2018-08-19T02:46:18.620Z,19.30
2018-08-19T02:48:50.455Z,19.39
2018-08-19T02:51:21.822Z,19.19
2018-08-19T02:53:53.071Z,19.17
2018-08-19T02:56:23.956Z,18.98
2018-08-19T02:58:54.841Z,18.94
2018-08-19T03:01:25.673Z,18.90
2018-08-19T03:03:56.724Z,18.91
2018-08-19T03:06:27.614Z,18.78
2018-08-19T03:08:59.937Z,18.55
2018-08-19T03:11:30.532Z,18.55
2018-08-19T03:14:01.461Z,18.56
2018-08-19T03:16:34.087Z,18.68
2018-08-19T03:19:04.690Z,18.68
2018-08-19T03:21:35.657Z,18.85
2018-08-19T03:24:06.499Z,18.67
2018-08-19T03:26:37.897Z,18.74
2018-08-19T03:29:13.910Z,18.87
2018-08-19T03:31:47.791Z,18.99
2018-08-19T03:34:18.482Z,18.86
2018-08-19T03:36:49.078Z,18.75
2018-08-19T03:39:20.101Z,18.72
2018-08-19T03:41:50.914Z,18.69
2018-08-19T03:44:21.877Z,18.85
2018-08-19T03:46:51.936Z,18.88
2018-08-19T03:49:23.181Z,19.01
2018-08-19T03:51:54.013Z,19.02
2018-08-19T03:54:24.640Z,19.11
2018-08-19T03:56:55.149Z,19.04
2018-08-19T03:59:25.543Z,18.88
2018-08-19T04:01:56.035Z,18.73
2018-08-19T04:04:25.973Z,18.75
2018-08-19T04:06:55.917Z,18.90
2018-08-19T04:09:26.341Z,19.05
2018-08-19T04:12:08.767Z,19.18
2018-08-19T04:14:38.564Z,19.18
2018-08-19T04:17:09.465Z,19.02
2018-08-19T04:19:39.210Z,19.02
2018-08-19T04:22:09.065Z,18.93
2018-08-19T04:24:39.898Z,19.24
2018-08-19T04:27:11.998Z,19.36
2018-08-19T04:29:43.026Z,19.28
2018-08-19T04:32:19.524Z,19.23
2018-08-19T04:34:50.511Z,19.23
2018-08-19T04:37:21.613Z,19.37
2018-08-19T04:39:52.476Z,19.54
2018-08-19T04:42:23.194Z,19.72
2018-08-19T04:44:54.620Z,19.92
2018-08-19T04:47:31.310Z,19.83
2018-08-19T04:50:01.946Z,20.03
2018-08-19T04:52:34.033Z,20.18
2018-08-19T04:55:03.915Z,20.29
2018-08-19T04:57:34.842Z,20.47
2018-08-19T05:00:05.492Z,20.62
2018-08-19T05:02:36.445Z,20.42
2018-08-19T05:05:07.958Z,20.51
2018-08-19T05:07:38.144Z,20.83
2018-08-19T05:10:08.077Z,20.86
2018-08-19T05:12:37.958Z,21.00
2018-08-19T05:15:08.544Z,21.25
2018-08-19T05:17:39.294Z,21.41
2018-08-19T05:20:15.024Z,21.52
2018-08-19T05:22:45.880Z,21.74
2018-08-19T05:25:15.794Z,21.79
2018-08-19T05:27:47.556Z,22.05
2018-08-19T05:30:17.472Z,22.14
2018-08-19T05:32:52.810Z,22.53
2018-08-19T05:35:23.125Z,22.89
2018-08-19T05:37:53.845Z,23.22
2018-08-19T05:40:23.812Z,23.51
2018-08-19T05:42:53.923Z,23.75
2018-08-19T05:45:24.193Z,23.62
2018-08-19T05:48:05.578Z,23.72
2018-08-19T05:50:35.757Z,23.85
2018-08-19T05:53:06.592Z,24.01
2018-08-19T05:55:37.935Z,24.05
2018-08-19T05:58:08.850Z,24.18
2018-08-19T06:00:44.445Z,24.35
2018-08-19T06:03:15.305Z,24.13
2018-08-19T06:05:46.072Z,24.26
2018-08-19T06:08:17.363Z,24.44
2018-08-19T06:10:48.179Z,24.43
2018-08-19T06:13:18.574Z,24.40
2018-08-19T06:15:49.459Z,24.67
2018-08-19T06:18:20.011Z,24.71
2018-08-19T06:20:50.981Z,24.91
2018-08-19T06:23:22.767Z,24.98
2018-08-19T06:25:53.876Z,25.24
2018-08-19T06:28:24.360Z,25.40
2018-08-19T06:30:55.790Z,25.53
2018-08-19T06:33:26.554Z,25.56
2018-08-19T06:35:57.652Z,25.64
2018-08-19T06:38:28.746Z,25.86
2018-08-19T06:40:59.635Z,26.01
2018-08-19T06:43:30.498Z,26.22
2018-08-19T06:46:01.386Z,26.42
2018-08-19T06:48:32.557Z,26.50
2018-08-19T06:51:04.369Z,26.58
2018-08-19T06:53:35.295Z,26.67
2018-08-19T06:56:05.967Z,26.96
2018-08-19T06:58:36.708Z,26.97
2018-08-19T07:01:07.513Z,27.03
2018-08-19T07:03:42.212Z,27.10
2018-08-19T07:06:13.070Z,27.19
2018-08-19T07:08:43.257Z,27.49
2018-08-19T07:11:14.087Z,27.46
2018-08-19T07:13:44.707Z,27.32
2018-08-19T07:16:15.566Z,27.51
2018-08-19T07:18:45.586Z,27.53
2018-08-19T07:21:15.723Z,27.80
2018-08-19T07:23:47.221Z,28.03
2018-08-19T07:26:18.107Z,28.40
2018-08-19T07:28:48.888Z,28.56
2018-08-19T07:31:19.809Z,28.53
2018-08-19T07:33:50.864Z,28.47
2018-08-19T07:36:21.529Z,28.78
2018-08-19T07:38:51.948Z,29.17
2018-08-19T07:41:22.626Z,29.20
2018-08-19T07:43:53.470Z,29.31
2018-08-19T07:46:24.322Z,29.37
2018-08-19T07:48:55.033Z,29.48
2018-08-19T07:51:25.913Z,29.77
2018-08-19T07:53:57.223Z,29.52
2018-08-19T07:56:27.545Z,29.76
2018-08-19T07:59:15.166Z,30.12
2018-08-19T08:01:47.012Z,30.15
2018-08-19T08:04:18.087Z,30.29
2018-08-19T08:06:49.910Z,30.34
2018-08-19T08:09:19.844Z,30.55
2018-08-19T08:11:50.545Z,30.82
2018-08-19T08:14:21.405Z,30.90
2018-08-19T08:16:54.909Z,30.99
2018-08-19T08:19:26.109Z,30.96
2018-08-19T08:22:03.385Z,31.13
2018-08-19T08:24:34.237Z,31.46
2018-08-19T08:27:07.574Z,31.81
2018-08-19T08:29:38.567Z,32.01
2018-08-19T08:32:09.330Z,31.95
2018-08-19T08:34:40.076Z,32.01
2018-08-19T08:37:12.964Z,32.03
2018-08-19T08:39:43.974Z,32.43
2018-08-19T08:42:14.523Z,32.71
2018-08-19T08:44:45.642Z,32.70
2018-08-19T08:47:16.487Z,32.78
2018-08-19T08:49:47.160Z,32.78
2018-08-19T08:52:24.520Z,32.98
2018-08-19T08:54:58.185Z,33.13
2018-08-19T08:57:28.997Z,32.55
2018-08-19T09:00:00.439Z,32.60
2018-08-19T09:02:31.246Z,32.56
2018-08-19T09:05:02.634Z,32.74
2018-08-19T09:07:33.519Z,33.13
2018-08-19T09:10:04.825Z,33.31
2018-08-19T09:12:45.383Z,33.58
2018-08-19T09:15:16.454Z,33.58
2018-08-19T09:17:47.429Z,33.88
2018-08-19T09:20:18.457Z,33.78
2018-08-19T09:22:49.938Z,33.87
2018-08-19T09:25:20.220Z,34.03
2018-08-19T09:27:50.983Z,33.70
2018-08-19T09:30:31.562Z,34.11
2018-08-19T09:33:03.048Z,34.09
2018-08-19T09:35:35.375Z,34.54
2018-08-19T09:38:12.034Z,34.34
2018-08-19T09:40:42.207Z,34.04
2018-08-19T09:43:13.543Z,34.39
2018-08-19T09:45:44.628Z,34.95
2018-08-19T09:48:15.698Z,35.32
2018-08-19T09:50:46.371Z,35.49
2018-08-19T09:53:17.226Z,36.05
2018-08-19T09:56:20.088Z,36.40
2018-08-19T09:59:06.739Z,35.47
2018-08-19T10:01:40.922Z,35.11
2018-08-19T10:04:17.347Z,35.37
2018-08-19T10:06:50.578Z,35.92
2018-08-19T10:09:20.299Z,35.76
2018-08-19T10:11:50.504Z,36.21
2018-08-19T10:14:20.642Z,35.76
2018-08-19T10:16:50.795Z,35.59
2018-08-19T10:19:23.347Z,35.34
2018-08-19T10:21:53.215Z,35.73
2018-08-19T10:24:30.121Z,36.21
2018-08-19T10:27:00.671Z,37.13
2018-08-19T10:29:30.737Z,37.69
2018-08-19T10:32:02.576Z,37.13
2018-08-19T10:34:33.546Z,37.41
2018-08-19T10:37:03.948Z,37.10
2018-08-19T10:39:33.686Z,36.56
2018-08-19T10:42:19.449Z,36.95
2018-08-19T10:44:51.540Z,37.66
2018-08-19T10:47:21.888Z,37.94
2018-08-19T10:49:58.671Z,38.72
2018-08-19T10:52:30.380Z,38.73
2018-08-19T10:55:01.421Z,38.96
2018-08-19T10:57:31.461Z,39.21
2018-08-19T11:00:01.510Z,39.39
2018-08-19T11:02:31.594Z,39.16
2018-08-19T11:05:01.716Z,39.49
2018-08-19T11:07:31.666Z,39.82
2018-08-19T11:10:24.828Z,39.84
2018-08-19T11:12:57.681Z,39.15
2018-08-19T11:15:46.855Z,38.48
2018-08-19T11:18:23.656Z,38.65
2018-08-19T11:20:56.667Z,37.99
2018-08-19T11:23:27.538Z,37.38
2018-08-19T11:25:58.526Z,37.12
2018-08-19T11:28:38.820Z,36.85
2018-08-19T11:31:16.606Z,37.03
2018-08-19T11:33:46.778Z,37.19
2018-08-19T11:36:16.734Z,37.42
2018-08-19T11:38:52.437Z,37.85
2018-08-19T11:41:22.491Z,37.91
2018-08-19T11:43:52.738Z,37.80
2018-08-19T11:46:22.601Z,37.51
2018-08-19T11:48:57.964Z,38.45
2018-08-19T11:51:42.166Z,37.62
2018-08-19T11:54:13.951Z,36.96
2018-08-19T11:56:54.978Z,37.16
2018-08-19T11:59:30.844Z,37.19
2018-08-19T12:02:01.200Z,35.86
2018-08-19T12:04:31.302Z,34.32
2018-08-19T12:07:01.515Z,34.15
2018-08-19T12:09:31.501Z,33.53
2018-08-19T12:12:01.528Z,33.25
2018-08-19T12:14:36.367Z,32.97
2018-08-19T12:17:09.765Z,32.95
2018-08-19T12:19:42.619Z,33.56
2018-08-19T12:22:12.549Z,34.79
2018-08-19T12:24:45.502Z,35.23
2018-08-19T12:27:16.802Z,35.70
2018-08-19T12:29:47.451Z,36.44
2018-08-19T12:32:23.182Z,36.99
2018-08-19T12:34:54.167Z,36.18
2018-08-19T12:37:25.077Z,35.77
2018-08-19T12:39:55.649Z,35.89
2018-08-19T12:42:25.934Z,35.94
2018-08-19T12:45:01.516Z,36.39
2018-08-19T12:47:31.493Z,36.85
2018-08-19T12:50:04.471Z,36.64
2018-08-19T12:52:34.925Z,37.01
2018-08-19T12:55:10.318Z,37.23
2018-08-19T12:57:41.197Z,37.12
2018-08-19T13:00:20.524Z,37.04
2018-08-19T13:02:51.993Z,36.21
2018-08-19T13:05:22.327Z,32.77
2018-08-19T13:07:52.380Z,31.28
2018-08-19T13:10:22.701Z,31.20
2018-08-19T13:12:57.049Z,31.58
2018-08-19T13:15:29.225Z,31.45
2018-08-19T13:17:59.314Z,31.77
2018-08-19T13:20:29.314Z,31.65
2018-08-19T13:23:02.406Z,31.18
2018-08-19T13:25:34.051Z,30.35
2018-08-19T13:28:05.183Z,30.51
2018-08-19T13:30:36.308Z,30.73
2018-08-19T13:33:07.141Z,30.50
2018-08-19T13:35:38.048Z,30.51
2018-08-19T13:38:08.920Z,30.67
2018-08-19T13:40:39.936Z,30.60
2018-08-19T13:43:10.980Z,30.61
2018-08-19T13:45:43.213Z,30.54
2018-08-19T13:48:13.961Z,30.43
2018-08-19T13:50:44.641Z,30.39
2018-08-19T13:53:15.157Z,30.39
2018-08-19T13:55:46.004Z,30.68
2018-08-19T13:58:16.863Z,31.30
2018-08-19T14:00:48.169Z,32.24
2018-08-19T14:03:19.338Z,33.15
2018-08-19T14:05:49.413Z,33.97
2018-08-19T14:08:20.172Z,34.71
2018-08-19T14:10:50.748Z,35.22
2018-08-19T14:13:21.267Z,35.92
2018-08-19T14:15:51.367Z,36.25
2018-08-19T14:18:22.259Z,35.69
2018-08-19T14:20:54.576Z,35.87
2018-08-19T14:23:26.136Z,35.85
2018-08-19T14:25:57.426Z,35.61
2018-08-19T14:28:28.635Z,35.33
2018-08-19T14:30:59.925Z,34.97
2018-08-19T14:33:31.188Z,34.58
2018-08-19T14:36:02.416Z,34.40
2018-08-19T14:38:33.540Z,34.85
2018-08-19T14:41:04.953Z,35.13
2018-08-19T14:43:45.210Z,35.55
2018-08-19T14:46:15.448Z,35.97
2018-08-19T14:48:45.850Z,35.84
2018-08-19T14:51:16.937Z,35.83
2018-08-19T14:53:48.981Z,35.99
2018-08-19T14:56:19.964Z,36.26
2018-08-19T14:58:50.617Z,35.73
2018-08-19T15:01:21.382Z,34.08
2018-08-19T15:03:57.337Z,33.10
2018-08-19T15:06:28.333Z,32.39
2018-08-19T15:08:59.234Z,32.12
2018-08-19T15:11:30.091Z,31.63
2018-08-19T15:14:05.462Z,30.98
2018-08-19T15:16:36.346Z,30.53
2018-08-19T15:19:07.104Z,30.24
2018-08-19T15:21:38.848Z,30.20
2018-08-19T15:24:10.153Z,30.18
2018-08-19T15:26:41.245Z,29.92
2018-08-19T15:29:17.104Z,30.15
2018-08-19T15:31:48.839Z,30.58
2018-08-19T15:34:20.443Z,31.09
2018-08-19T15:36:51.339Z,31.59
2018-08-19T15:39:22.484Z,31.86
2018-08-19T15:41:53.352Z,31.75
2018-08-19T15:44:24.093Z,31.55
2018-08-19T15:46:55.599Z,31.56
2018-08-19T15:49:26.927Z,31.49
2018-08-19T15:51:57.695Z,31.70
2018-08-19T15:54:29.022Z,31.82
2018-08-19T15:57:03.132Z,32.05
2018-08-19T15:59:37.928Z,32.26
2018-08-19T16:02:08.871Z,32.34
2018-08-19T16:04:39.952Z,32.37
2018-08-19T16:07:09.876Z,32.42
2018-08-19T16:09:40.166Z,32.44
2018-08-19T16:12:10.025Z,32.56
2018-08-19T16:14:39.839Z,32.82
2018-08-19T16:17:09.713Z,32.60
2018-08-19T16:19:39.629Z,32.32
2018-08-19T16:22:09.641Z,32.31
2018-08-19T16:24:39.607Z,32.32
2018-08-19T16:27:09.844Z,32.28
2018-08-19T16:29:39.725Z,31.79
2018-08-19T16:32:09.828Z,31.56
2018-08-19T16:34:39.626Z,31.34
2018-08-19T16:37:09.727Z,31.05
2018-08-19T16:39:39.714Z,30.60
2018-08-19T16:42:09.585Z,30.32
2018-08-19T16:44:39.918Z,30.44
2018-08-19T16:47:09.692Z,30.18
2018-08-19T16:49:39.440Z,30.20
2018-08-19T16:52:09.288Z,30.13
2018-08-19T16:54:39.108Z,29.67
2018-08-19T16:57:09.002Z,29.63
2018-08-19T16:59:38.738Z,29.52
2018-08-19T17:02:08.531Z,29.25
2018-08-19T17:04:38.979Z,29.13
2018-08-19T17:07:10.258Z,29.13
2018-08-19T17:09:40.473Z,29.05
2018-08-19T17:12:10.208Z,28.90
2018-08-19T17:14:40.044Z,28.54
2018-08-19T17:17:10.299Z,28.38
2018-08-19T17:19:41.340Z,27.59
2018-08-19T17:22:12.585Z,27.21
2018-08-19T17:24:42.651Z,27.27
2018-08-19T17:27:13.437Z,27.26
2018-08-19T17:29:43.350Z,27.15
2018-08-19T17:32:13.337Z,27.26
2018-08-19T17:34:43.209Z,26.91
2018-08-19T17:37:12.999Z,26.77
2018-08-19T17:39:43.367Z,26.84
2018-08-19T17:42:13.001Z,26.78
2018-08-19T17:44:42.799Z,26.77
2018-08-19T17:47:12.621Z,26.69
2018-08-19T17:49:42.526Z,26.45
2018-08-19T17:52:12.331Z,26.50
2018-08-19T17:54:42.290Z,26.50
2018-08-19T17:57:12.174Z,26.64
2018-08-19T17:59:42.058Z,26.61
2018-08-19T18:02:12.064Z,26.57
2018-08-19T18:04:48.301Z,26.47
2018-08-19T18:07:23.087Z,26.35
2018-08-19T18:09:57.801Z,26.26
2018-08-19T18:12:27.760Z,26.23
2018-08-19T18:14:57.865Z,26.20
2018-08-19T18:17:27.857Z,26.08
2018-08-19T18:19:57.849Z,26.05
2018-08-19T18:22:27.757Z,25.86
2018-08-19T18:25:03.141Z,25.85
2018-08-19T18:27:32.992Z,25.79
2018-08-19T18:30:04.173Z,25.71
2018-08-19T18:32:34.059Z,25.61
2018-08-19T18:35:05.064Z,25.46
2018-08-19T18:37:36.332Z,25.38
2018-08-19T18:40:07.388Z,25.27
2018-08-19T18:42:40.411Z,25.17
2018-08-19T18:45:12.488Z,24.95
2018-08-19T18:47:49.947Z,24.76
2018-08-19T18:50:24.150Z,24.56
2018-08-19T18:52:55.354Z,24.39
2018-08-19T18:55:26.244Z,24.40
2018-08-19T18:57:57.495Z,24.32
2018-08-19T19:00:28.247Z,24.20
2018-08-19T19:03:00.965Z,24.13
2018-08-19T19:05:40.733Z,24.05
2018-08-19T19:08:16.237Z,24.09
2018-08-19T19:11:19.861Z,23.98
2018-08-19T19:13:51.415Z,24.03
2018-08-19T19:16:41.196Z,23.93
2018-08-19T19:19:13.096Z,23.88
2018-08-19T19:21:49.499Z,23.80
2018-08-19T19:24:25.542Z,23.71
2018-08-19T19:26:56.837Z,23.61
2018-08-19T19:29:27.601Z,23.62
2018-08-19T19:31:59.547Z,23.59
2018-08-19T19:34:31.999Z,23.56
2018-08-19T19:37:02.228Z,23.56
2018-08-19T19:39:32.394Z,23.47
2018-08-19T19:42:09.988Z,23.28
2018-08-19T19:44:40.985Z,22.62
2018-08-19T19:47:11.352Z,22.57
2018-08-19T19:49:47.238Z,22.56
2018-08-19T19:52:17.172Z,22.47
2018-08-19T19:54:47.039Z,22.32
2018-08-19T19:57:17.165Z,21.99
2018-08-19T19:59:47.061Z,22.08
2018-08-19T20:02:22.996Z,22.32
2018-08-19T20:04:52.984Z,22.67
2018-08-19T20:07:23.044Z,22.76
2018-08-19T20:09:53.012Z,22.73
2018-08-19T20:12:29.892Z,22.84
2018-08-19T20:15:02.379Z,22.95
2018-08-19T20:17:33.117Z,23.07
2018-08-19T20:20:03.798Z,23.12
2018-08-19T20:22:34.893Z,23.13
2018-08-19T20:25:06.182Z,23.14
2018-08-19T20:27:37.626Z,23.11
2018-08-19T20:30:08.198Z,22.86
2018-08-19T20:32:39.064Z,22.80
2018-08-19T20:35:09.981Z,22.61
2018-08-19T20:37:40.635Z,22.51
2018-08-19T20:40:11.261Z,22.38
2018-08-19T20:42:42.902Z,22.40
2018-08-19T20:45:13.987Z,22.57
2018-08-19T20:47:45.164Z,22.53
2018-08-19T20:50:16.294Z,22.49
2018-08-19T20:52:48.001Z,22.67
2018-08-19T20:55:18.926Z,22.62
2018-08-19T20:57:49.881Z,22.44
2018-08-19T21:00:21.420Z,22.57
2018-08-19T21:02:52.130Z,22.52
2018-08-19T21:05:23.575Z,22.48
2018-08-19T21:07:59.352Z,22.47
2018-08-19T21:10:30.677Z,22.49
2018-08-19T21:13:01.416Z,22.57
2018-08-19T21:15:37.156Z,22.51
2018-08-19T21:18:08.631Z,22.49
2018-08-19T21:20:39.881Z,22.53
2018-08-19T21:23:10.772Z,22.58
2018-08-19T21:25:47.442Z,22.11
2018-08-19T21:28:19.212Z,22.05
2018-08-19T21:30:50.118Z,21.83
2018-08-19T21:33:21.288Z,21.80
2018-08-19T21:35:53.591Z,22.00
2018-08-19T21:38:24.333Z,22.12
2018-08-19T21:40:56.987Z,22.25
2018-08-19T21:43:29.964Z,22.32
2018-08-19T21:46:01.694Z,22.15
2018-08-19T21:48:32.609Z,21.98
2018-08-19T21:51:03.389Z,21.88
2018-08-19T21:53:33.569Z,21.98
2018-08-19T21:56:04.390Z,21.91
2018-08-19T21:58:35.095Z,21.92
2018-08-19T22:01:10.268Z,21.90
2018-08-19T22:03:46.484Z,21.85
2018-08-19T22:06:17.399Z,21.73
2018-08-19T22:08:48.292Z,21.77
2018-08-19T22:11:18.968Z,21.69
2018-08-19T22:13:49.734Z,21.46
2018-08-19T22:16:20.675Z,21.48
2018-08-19T22:18:51.558Z,21.46
2018-08-19T22:21:24.234Z,21.56
2018-08-19T22:23:57.288Z,21.60
2018-08-19T22:26:28.460Z,21.57
2018-08-19T22:29:10.000Z,21.23
2018-08-19T22:31:41.089Z,21.18
2018-08-19T22:34:11.994Z,21.40
2018-08-19T22:36:43.014Z,21.36
2018-08-19T22:39:17.266Z,21.39
2018-08-19T22:41:51.020Z,21.16
2018-08-19T22:44:21.591Z,21.27
2018-08-19T22:46:52.549Z,21.22
2018-08-19T22:49:23.589Z,21.18
2018-08-19T22:51:55.289Z,21.11
2018-08-19T22:54:25.966Z,21.01
2018-08-19T22:56:57.116Z,21.12
2018-08-19T22:59:28.393Z,20.94
2018-08-19T23:01:59.427Z,20.95
2018-08-19T23:04:30.516Z,20.90
2018-08-19T23:07:01.596Z,20.95
2018-08-19T23:09:32.123Z,20.86
2018-08-19T23:12:03.117Z,20.77
2018-08-19T23:14:44.807Z,20.72
2018-08-19T23:17:15.728Z,20.60
2018-08-19T23:19:49.004Z,20.67
2018-08-19T23:22:20.006Z,20.58
2018-08-19T23:24:50.704Z,20.60
2018-08-19T23:27:21.403Z,20.70
2018-08-19T23:29:52.198Z,20.65
2018-08-19T23:32:23.080Z,20.66
2018-08-19T23:34:53.943Z,20.59
2018-08-19T23:37:25.011Z,20.52
2018-08-19T23:39:55.870Z,20.43
2018-08-19T23:42:26.013Z,20.46
2018-08-19T23:44:56.717Z,20.54
2018-08-19T23:47:27.387Z,20.54
2018-08-19T23:49:58.113Z,20.61
2018-08-19T23:52:28.795Z,20.67
2018-08-19T23:54:59.720Z,20.54
2018-08-19T23:57:30.494Z,20.29
